Time;durP1;ratioP1;P1;durP2;ratioP2;P2;SDS_P1;SDS_P2;PMS_P1;PMS_P2;Temp;Humidity;BMP_temperature;BMP_pressure;BME280_temperature;BME280_humidity;BME280_pressure;Samples;Min_cycle;Max_cycle;Signal;HPM_P1;HPM_P2
2023/09/22 00:02:24;;;;;;;1.83;1.67;;;;;;;;;;4992902;28;20026;-67
2023/09/22 00:04:50;;;;;;;2.90;1.85;;;;;;;;;;4989486;28;20089;-67
2023/09/22 00:07:15;;;;;;;2.90;1.52;;;;;;;;;;4993221;28;20043;-66
2023/09/22 00:09:40;;;;;;;2.13;1.65;;;;;;;;;;4990741;28;20384;-67
2023/09/22 00:12:08;;;;;;;1.48;1.38;;;;;;;;;;4995235;28;20038;-67
2023/09/22 00:14:34;;;;;;;2.80;1.73;;;;;;;;;;4996958;28;20030;-67
2023/09/22 00:17:00;;;;;;;1.40;1.30;;;;;;;;;;4997863;28;20034;-67
2023/09/22 00:19:25;;;;;;;1.67;1.58;;;;;;;;;;4995873;28;20058;-67
2023/09/22 00:21:50;;;;;;;4.75;1.30;;;;;;;;;;4996459;28;20492;-67
2023/09/22 00:24:16;;;;;;;2.78;1.38;;;;;;;;;;4991075;28;20393;-67
2023/09/22 00:26:41;;;;;;;0.93;0.90;;;;;;;;;;4987669;28;20121;-67
2023/09/22 00:29:07;;;;;;;1.63;1.30;;;;;;;;;;4997176;28;20031;-67
2023/09/22 00:31:32;;;;;;;8.52;2.33;;;;;;;;;;4982678;28;20035;-66
2023/09/22 00:33:57;;;;;;;2.45;1.13;;;;;;;;;;4992883;28;20503;-67
2023/09/22 00:36:25;;;;;;;1.20;1.10;;;;;;;;;;4986251;28;20661;-67
2023/09/22 00:38:51;;;;;;;2.65;1.25;;;;;;;;;;4988789;28;20052;-67
2023/09/22 00:41:16;;;;;;;1.20;1.02;;;;;;;;;;4993692;28;20680;-66
2023/09/22 00:43:42;;;;;;;1.00;1.00;;;;;;;;;;4993677;28;20031;-67
2023/09/22 00:46:07;;;;;;;1.58;1.20;;;;;;;;;;4977582;28;20447;-67
2023/09/22 00:48:35;;;;;;;1.05;0.90;;;;;;;;;;4997554;28;20066;-67
2023/09/22 00:51:03;;;;;;;0.80;0.80;;;;;;;;;;4992450;28;20488;-67
2023/09/22 00:53:32;;;;;;;0.90;0.85;;;;;;;;;;4989200;28;20030;-67
2023/09/22 00:55:58;;;;;;;1.48;1.10;;;;;;;;;;4992091;28;20042;-67
2023/09/22 00:58:24;;;;;;;2.42;0.70;;;;;;;;;;4994513;28;20038;-67
2023/09/22 01:00:49;;;;;;;0.85;0.85;;;;;;;;;;4996937;28;20049;-67
2023/09/22 01:03:16;;;;;;;0.70;0.70;;;;;;;;;;4993429;28;20030;-67
2023/09/22 01:05:42;;;;;;;1.55;1.00;;;;;;;;;;4996037;28;20924;-67
2023/09/22 01:08:08;;;;;;;1.48;0.88;;;;;;;;;;4992344;28;20031;-67
2023/09/22 01:10:37;;;;;;;0.65;0.60;;;;;;;;;;4992276;28;20043;-67
2023/09/22 01:13:06;;;;;;;1.70;0.80;;;;;;;;;;4994580;28;20480;-66
2023/09/22 01:15:37;;;;;;;0.95;0.90;;;;;;;;;;4997096;28;20046;-67
2023/09/22 01:18:05;;;;;;;0.80;0.80;;;;;;;;;;4994994;28;20143;-67
2023/09/22 01:20:32;;;;;;;3.70;0.80;;;;;;;;;;4984668;28;20043;-66
2023/09/22 01:22:58;;;;;;;0.80;0.60;;;;;;;;;;4990214;28;20166;-67
2023/09/22 01:25:24;;;;;;;1.33;0.65;;;;;;;;;;4986107;28;20078;-67
2023/09/22 01:27:50;;;;;;;0.57;0.57;;;;;;;;;;4995089;28;20472;-67
2023/09/22 01:30:15;;;;;;;0.55;0.55;;;;;;;;;;4992987;28;20145;-67
2023/09/22 01:32:41;;;;;;;0.65;0.65;;;;;;;;;;4982648;28;20019;-67
2023/09/22 01:35:07;;;;;;;0.60;0.60;;;;;;;;;;4988309;28;20022;-67
2023/09/22 01:37:41;;;;;;;0.70;0.70;;;;;;;;;;4990050;28;20032;-67
2023/09/22 01:40:08;;;;;;;0.50;0.50;;;;;;;;;;4984859;28;20472;-67
2023/09/22 01:42:34;;;;;;;0.50;0.50;;;;;;;;;;4994497;28;20030;-67
2023/09/22 01:45:00;;;;;;;1.42;0.80;;;;;;;;;;4993373;28;20552;-66
2023/09/22 01:47:26;;;;;;;1.05;0.68;;;;;;;;;;4995282;28;20030;-67
2023/09/22 01:49:51;;;;;;;0.60;0.60;;;;;;;;;;4993891;28;20030;-67
2023/09/22 01:52:17;;;;;;;0.70;0.57;;;;;;;;;;4985551;28;20042;-67
2023/09/22 01:54:42;;;;;;;1.27;0.50;;;;;;;;;;4996643;28;20388;-67
2023/09/22 01:57:08;;;;;;;0.55;0.55;;;;;;;;;;4990910;28;20040;-67
2023/09/22 01:59:33;;;;;;;1.35;0.70;;;;;;;;;;4994255;28;20022;-67
2023/09/22 02:01:59;;;;;;;1.75;0.60;;;;;;;;;;4987254;28;20074;-67
2023/09/22 02:04:24;;;;;;;0.73;0.70;;;;;;;;;;4994622;28;20037;-67
2023/09/22 02:06:51;;;;;;;2.00;0.80;;;;;;;;;;4994874;28;20096;-67
2023/09/22 02:09:16;;;;;;;0.60;0.55;;;;;;;;;;4988427;28;20026;-67
2023/09/22 02:11:42;;;;;;;0.50;0.50;;;;;;;;;;4989692;28;20523;-67
2023/09/22 02:14:09;;;;;;;0.77;0.75;;;;;;;;;;4996461;28;20034;-66
2023/09/22 02:16:34;;;;;;;0.75;0.75;;;;;;;;;;4993883;28;20050;-67
2023/09/22 02:18:59;;;;;;;0.57;0.50;;;;;;;;;;4987698;28;20672;-67
2023/09/22 02:21:27;;;;;;;0.95;0.40;;;;;;;;;;4989366;28;20089;-67
2023/09/22 02:23:53;;;;;;;0.60;0.60;;;;;;;;;;4991762;28;20026;-67
2023/09/22 02:26:18;;;;;;;0.68;0.60;;;;;;;;;;4970876;28;20085;-67
2023/09/22 02:28:45;;;;;;;1.17;0.63;;;;;;;;;;4986977;28;20038;-67
2023/09/22 02:31:10;;;;;;;0.52;0.52;;;;;;;;;;4993655;28;20043;-67
2023/09/22 02:33:36;;;;;;;0.73;0.50;;;;;;;;;;4991910;28;20384;-67
2023/09/22 02:36:04;;;;;;;2.08;0.60;;;;;;;;;;4990386;28;20058;-67
2023/09/22 02:38:30;;;;;;;0.40;0.40;;;;;;;;;;4987149;28;20018;-67
2023/09/22 02:40:55;;;;;;;1.58;0.63;;;;;;;;;;4985013;28;20525;-67
2023/09/22 02:43:21;;;;;;;0.60;0.40;;;;;;;;;;4993853;28;20030;-67
2023/09/22 02:45:46;;;;;;;0.50;0.50;;;;;;;;;;4998333;28;20106;-67
2023/09/22 02:48:11;;;;;;;2.00;0.80;;;;;;;;;;4993713;28;20325;-67
2023/09/22 02:50:37;;;;;;;1.27;0.50;;;;;;;;;;4993793;28;20037;-67
2023/09/22 02:53:03;;;;;;;0.82;0.75;;;;;;;;;;4988396;28;20084;-67
2023/09/22 02:55:30;;;;;;;0.52;0.52;;;;;;;;;;4996157;28;20038;-67
2023/09/22 02:57:55;;;;;;;0.85;0.60;;;;;;;;;;4999230;28;20073;-67
2023/09/22 03:00:21;;;;;;;0.80;0.55;;;;;;;;;;4990460;28;20035;-67
2023/09/22 03:02:48;;;;;;;0.40;0.40;;;;;;;;;;4994905;28;20046;-67
2023/09/22 03:05:16;;;;;;;1.48;0.70;;;;;;;;;;4988772;28;20042;-67
2023/09/22 03:07:44;;;;;;;0.60;0.60;;;;;;;;;;4999431;28;20769;-67
2023/09/22 03:10:13;;;;;;;0.60;0.60;;;;;;;;;;4995033;28;20063;-67
2023/09/22 03:12:38;;;;;;;0.52;0.43;;;;;;;;;;4999740;28;20042;-67
2023/09/22 03:15:05;;;;;;;1.67;0.70;;;;;;;;;;4998841;28;20041;-67
2023/09/22 03:17:31;;;;;;;0.63;0.52;;;;;;;;;;4986787;28;20062;-67
2023/09/22 03:20:00;;;;;;;0.68;0.50;;;;;;;;;;4991755;28;20094;-66
2023/09/22 03:22:26;;;;;;;1.02;0.60;;;;;;;;;;4999445;28;20030;-67
2023/09/22 03:24:51;;;;;;;1.95;0.50;;;;;;;;;;4990451;28;20041;-67
2023/09/22 03:27:17;;;;;;;0.47;0.47;;;;;;;;;;4995062;28;20097;-67
2023/09/22 03:29:43;;;;;;;1.98;0.40;;;;;;;;;;4994940;28;20047;-67
2023/09/22 03:32:08;;;;;;;2.40;0.82;;;;;;;;;;4991975;28;20034;-67
2023/09/22 03:34:34;;;;;;;0.52;0.52;;;;;;;;;;4996883;28;20037;-67
2023/09/22 03:37:00;;;;;;;0.50;0.50;;;;;;;;;;4991706;28;20034;-67
2023/09/22 03:39:28;;;;;;;0.57;0.57;;;;;;;;;;4991334;28;20023;-67
2023/09/22 03:41:54;;;;;;;1.20;0.63;;;;;;;;;;4993302;28;20050;-67
2023/09/22 03:44:20;;;;;;;1.42;0.50;;;;;;;;;;4987552;28;20030;-66
2023/09/22 03:46:46;;;;;;;1.30;0.60;;;;;;;;;;4994152;28;20042;-67
2023/09/22 03:49:12;;;;;;;1.33;0.43;;;;;;;;;;4991381;28;20035;-67
2023/09/22 03:51:38;;;;;;;1.08;0.50;;;;;;;;;;4986939;28;20041;-67
2023/09/22 03:54:03;;;;;;;0.50;0.45;;;;;;;;;;4993606;28;20038;-67
2023/09/22 03:56:29;;;;;;;1.83;0.80;;;;;;;;;;4993910;28;20039;-67
2023/09/22 03:58:54;;;;;;;0.90;0.60;;;;;;;;;;4993105;28;20097;-67
2023/09/22 04:01:19;;;;;;;0.82;0.40;;;;;;;;;;4993514;28;20121;-67
2023/09/22 04:03:45;;;;;;;0.50;0.50;;;;;;;;;;4993634;28;20026;-67
2023/09/22 04:06:10;;;;;;;0.52;0.52;;;;;;;;;;4983066;28;20043;-67
2023/09/22 04:08:36;;;;;;;0.50;0.50;;;;;;;;;;4991595;28;20031;-67
2023/09/22 04:11:02;;;;;;;0.40;0.40;;;;;;;;;;4997435;28;20039;-67
2023/09/22 04:13:29;;;;;;;0.52;0.50;;;;;;;;;;4997788;28;20026;-67
2023/09/22 04:15:59;;;;;;;0.60;0.60;;;;;;;;;;4996217;28;20046;-67
2023/09/22 04:18:29;;;;;;;0.77;0.70;;;;;;;;;;4988630;28;20026;-67
2023/09/22 04:20:55;;;;;;;0.65;0.52;;;;;;;;;;4987900;28;20039;-67
2023/09/22 04:23:21;;;;;;;2.25;0.68;;;;;;;;;;4988194;28;20026;-67
2023/09/22 04:25:47;;;;;;;0.73;0.55;;;;;;;;;;4993033;28;20035;-67
2023/09/22 04:28:17;;;;;;;0.82;0.50;;;;;;;;;;4985489;28;20089;-67
2023/09/22 04:30:42;;;;;;;0.52;0.52;;;;;;;;;;4988482;28;20124;-67
2023/09/22 04:33:10;;;;;;;1.80;0.50;;;;;;;;;;4992620;28;20023;-67
2023/09/22 04:35:36;;;;;;;0.60;0.60;;;;;;;;;;4991702;28;20046;-67
2023/09/22 04:38:03;;;;;;;0.52;0.52;;;;;;;;;;4993019;28;20622;-67
2023/09/22 04:40:36;;;;;;;4.50;0.70;;;;;;;;;;4987288;28;20039;-67
2023/09/22 04:43:02;;;;;;;0.70;0.70;;;;;;;;;;4992067;28;20030;-67
2023/09/22 04:45:29;;;;;;;2.92;0.77;;;;;;;;;;4993510;28;20472;-67
2023/09/22 04:47:55;;;;;;;0.90;0.70;;;;;;;;;;4992065;28;20030;-67
2023/09/22 04:50:21;;;;;;;0.63;0.63;;;;;;;;;;4990571;28;20034;-67
2023/09/22 04:52:49;;;;;;;0.60;0.57;;;;;;;;;;4985025;28;20026;-66
2023/09/22 04:55:16;;;;;;;0.65;0.65;;;;;;;;;;4986614;28;20041;-66
2023/09/22 04:57:42;;;;;;;0.50;0.50;;;;;;;;;;4990917;28;20166;-65
2023/09/22 05:00:09;;;;;;;4.07;0.60;;;;;;;;;;4991169;28;20042;-65
2023/09/22 05:02:34;;;;;;;1.15;0.50;;;;;;;;;;4991970;28;20042;-65
2023/09/22 05:05:01;;;;;;;3.30;0.80;;;;;;;;;;4988456;28;20161;-65
2023/09/22 05:07:28;;;;;;;2.50;0.60;;;;;;;;;;4995823;28;20041;-65
2023/09/22 05:09:53;;;;;;;0.47;0.47;;;;;;;;;;4992887;28;20032;-65
2023/09/22 05:12:19;;;;;;;3.72;0.65;;;;;;;;;;4997098;28;20468;-64
2023/09/22 05:14:44;;;;;;;1.80;0.63;;;;;;;;;;4991853;28;20026;-66
2023/09/22 05:17:09;;;;;;;0.70;0.70;;;;;;;;;;4996600;28;20038;-65
2023/09/22 05:19:35;;;;;;;1.45;0.50;;;;;;;;;;4995497;28;20042;-65
2023/09/22 05:22:00;;;;;;;0.45;0.45;;;;;;;;;;4994818;28;20038;-65
2023/09/22 05:24:26;;;;;;;4.30;0.55;;;;;;;;;;4994991;28;20066;-64
2023/09/22 05:26:52;;;;;;;2.65;0.73;;;;;;;;;;4991562;28;20061;-64
2023/09/22 05:29:18;;;;;;;3.85;0.57;;;;;;;;;;4984501;28;20118;-66
2023/09/22 05:31:44;;;;;;;0.40;0.40;;;;;;;;;;5020944;28;20118;-65
2023/09/22 05:34:10;;;;;;;0.50;0.50;;;;;;;;;;4996985;28;20034;-65
2023/09/22 05:36:36;;;;;;;2.30;0.60;;;;;;;;;;4995382;28;20065;-65
2023/09/22 05:39:02;;;;;;;1.27;0.65;;;;;;;;;;4991287;28;20041;-65
2023/09/22 05:41:28;;;;;;;0.50;0.50;;;;;;;;;;4986636;28;20050;-64
2023/09/22 05:43:56;;;;;;;0.55;0.55;;;;;;;;;;4995886;28;20030;-65
2023/09/22 05:46:22;;;;;;;0.50;0.50;;;;;;;;;;4985257;28;20035;-65
2023/09/22 05:48:48;;;;;;;0.85;0.40;;;;;;;;;;4987115;28;20121;-65
2023/09/22 05:51:14;;;;;;;0.57;0.40;;;;;;;;;;4989459;28;20088;-65
2023/09/22 05:53:40;;;;;;;0.73;0.55;;;;;;;;;;4987392;28;20034;-65
2023/09/22 05:56:07;;;;;;;0.57;0.57;;;;;;;;;;4989047;28;20099;-65
2023/09/22 05:58:34;;;;;;;0.55;0.55;;;;;;;;;;4985542;28;20031;-65
2023/09/22 06:01:08;;;;;;;0.82;0.40;;;;;;;;;;4985444;28;20027;-65
2023/09/22 06:03:35;;;;;;;3.50;0.88;;;;;;;;;;4989274;28;20030;-65
2023/09/22 06:06:14;;;;;;;0.47;0.47;;;;;;;;;;4990544;28;20045;-65
2023/09/22 06:08:41;;;;;;;0.45;0.45;;;;;;;;;;4986181;28;20173;-65
2023/09/22 06:11:08;;;;;;;1.30;0.80;;;;;;;;;;4993006;28;20118;-65
2023/09/22 06:13:34;;;;;;;4.15;0.70;;;;;;;;;;4984307;28;20034;-65
2023/09/22 06:16:04;;;;;;;0.88;0.85;;;;;;;;;;4976641;28;20047;-65
2023/09/22 06:18:30;;;;;;;0.77;0.63;;;;;;;;;;4983713;28;20478;-64
2023/09/22 06:20:56;;;;;;;1.48;0.70;;;;;;;;;;4986044;28;20050;-65
2023/09/22 06:23:23;;;;;;;8.68;1.00;;;;;;;;;;4990397;28;20053;-65
2023/09/22 06:25:54;;;;;;;2.38;0.82;;;;;;;;;;4988638;28;20065;-64
2023/09/22 06:28:20;;;;;;;1.73;0.63;;;;;;;;;;4995117;28;20026;-65
2023/09/22 06:30:46;;;;;;;3.92;0.70;;;;;;;;;;4987760;28;20113;-65
2023/09/22 06:33:15;;;;;;;0.98;0.60;;;;;;;;;;4990132;28;20503;-65
2023/09/22 06:35:40;;;;;;;2.45;0.75;;;;;;;;;;4988132;28;20167;-65
2023/09/22 06:38:06;;;;;;;4.65;0.73;;;;;;;;;;5006648;28;20056;-65
2023/09/22 06:40:35;;;;;;;2.50;0.70;;;;;;;;;;4995433;28;20046;-65
2023/09/22 06:43:01;;;;;;;2.00;0.55;;;;;;;;;;4992703;28;20023;-65
2023/09/22 06:45:26;;;;;;;4.25;0.77;;;;;;;;;;4978689;28;20041;-65
2023/09/22 06:47:51;;;;;;;2.38;0.80;;;;;;;;;;4983482;28;20033;-65
2023/09/22 06:50:17;;;;;;;0.70;0.70;;;;;;;;;;4989034;28;20066;-65
2023/09/22 06:52:43;;;;;;;2.88;1.05;;;;;;;;;;4991809;28;20023;-65
2023/09/22 06:55:13;;;;;;;2.65;0.70;;;;;;;;;;4986116;28;20031;-65
2023/09/22 06:57:42;;;;;;;0.80;0.63;;;;;;;;;;4990679;28;20041;-65
2023/09/22 07:00:15;;;;;;;0.52;0.52;;;;;;;;;;4986038;28;20544;-65
2023/09/22 07:02:42;;;;;;;0.90;0.70;;;;;;;;;;4986217;28;20079;-65
2023/09/22 07:05:09;;;;;;;2.35;0.90;;;;;;;;;;4990985;28;20472;-65
2023/09/22 07:07:36;;;;;;;0.50;0.50;;;;;;;;;;4992854;28;20704;-65
2023/09/22 07:10:03;;;;;;;0.50;0.50;;;;;;;;;;4994412;28;20049;-65
2023/09/22 07:12:28;;;;;;;0.95;0.73;;;;;;;;;;4992239;28;20732;-64
2023/09/22 07:14:54;;;;;;;1.13;0.73;;;;;;;;;;4988894;28;20086;-65
2023/09/22 07:17:19;;;;;;;3.45;0.60;;;;;;;;;;4990227;28;20091;-65
2023/09/22 07:19:44;;;;;;;0.90;0.75;;;;;;;;;;4989477;28;20053;-65
2023/09/22 07:22:11;;;;;;;0.80;0.68;;;;;;;;;;4993047;28;20038;-65
2023/09/22 07:24:37;;;;;;;0.70;0.68;;;;;;;;;;4989127;28;20034;-65
2023/09/22 07:27:02;;;;;;;1.77;0.80;;;;;;;;;;4983376;28;20045;-65
2023/09/22 07:29:27;;;;;;;1.02;0.93;;;;;;;;;;4991279;28;20030;-65
2023/09/22 07:31:53;;;;;;;0.90;0.65;;;;;;;;;;4992622;28;20034;-65
2023/09/22 07:34:18;;;;;;;0.52;0.50;;;;;;;;;;4995550;28;20396;-65
2023/09/22 07:36:44;;;;;;;1.83;0.77;;;;;;;;;;4989606;28;20828;-65
2023/09/22 07:39:09;;;;;;;0.82;0.73;;;;;;;;;;4991386;28;20037;-65
2023/09/22 07:41:36;;;;;;;1.35;0.90;;;;;;;;;;4995861;28;20062;-65
2023/09/22 07:44:03;;;;;;;0.50;0.50;;;;;;;;;;4986268;28;20034;-65
2023/09/22 07:46:29;;;;;;;0.73;0.60;;;;;;;;;;4989303;28;20093;-65
2023/09/22 07:48:54;;;;;;;0.70;0.70;;;;;;;;;;4990806;28;20031;-65
2023/09/22 07:51:20;;;;;;;0.85;0.70;;;;;;;;;;4988886;28;20042;-65
2023/09/22 07:53:46;;;;;;;0.63;0.63;;;;;;;;;;4993748;28;20030;-65
2023/09/22 07:56:12;;;;;;;1.55;0.68;;;;;;;;;;4995047;28;20396;-65
2023/09/22 07:58:40;;;;;;;0.80;0.70;;;;;;;;;;4990029;28;20469;-65
2023/09/22 08:01:07;;;;;;;0.82;0.70;;;;;;;;;;4991750;28;20046;-65
2023/09/22 08:03:35;;;;;;;1.20;0.60;;;;;;;;;;4992412;28;20027;-65
2023/09/22 08:06:04;;;;;;;0.70;0.70;;;;;;;;;;4992649;28;20050;-65
2023/09/22 08:08:30;;;;;;;1.23;0.70;;;;;;;;;;4979717;28;20396;-65
2023/09/22 08:10:56;;;;;;;0.65;0.60;;;;;;;;;;4995947;28;20035;-65
2023/09/22 08:13:22;;;;;;;0.70;0.63;;;;;;;;;;4992116;28;20048;-65
2023/09/22 08:15:48;;;;;;;0.60;0.60;;;;;;;;;;4994034;28;20042;-65
2023/09/22 08:18:13;;;;;;;0.75;0.75;;;;;;;;;;4997622;28;20038;-65
2023/09/22 08:20:41;;;;;;;1.25;0.80;;;;;;;;;;4995556;28;20046;-65
2023/09/22 08:23:07;;;;;;;0.80;0.80;;;;;;;;;;4994148;28;20041;-65
2023/09/22 08:25:32;;;;;;;0.60;0.60;;;;;;;;;;4994636;28;20543;-65
2023/09/22 08:27:58;;;;;;;1.23;0.63;;;;;;;;;;4991450;28;20031;-65
2023/09/22 08:30:25;;;;;;;0.70;0.70;;;;;;;;;;4991900;28;20108;-65
2023/09/22 08:32:51;;;;;;;0.57;0.57;;;;;;;;;;4993504;28;20031;-65
2023/09/22 08:35:17;;;;;;;0.70;0.60;;;;;;;;;;4993522;28;20061;-65
2023/09/22 08:37:43;;;;;;;0.88;0.73;;;;;;;;;;4991453;28;20026;-65
2023/09/22 08:40:11;;;;;;;0.50;0.50;;;;;;;;;;4991619;28;20033;-65
2023/09/22 08:42:37;;;;;;;0.60;0.57;;;;;;;;;;4990848;28;20062;-65
2023/09/22 08:45:06;;;;;;;1.85;0.80;;;;;;;;;;4993482;28;20094;-65
2023/09/22 08:47:33;;;;;;;0.73;0.73;;;;;;;;;;4994760;28;20603;-65
2023/09/22 08:49:59;;;;;;;0.70;0.70;;;;;;;;;;4993048;28;20035;-65
2023/09/22 08:52:24;;;;;;;0.75;0.75;;;;;;;;;;4997136;28;20026;-65
2023/09/22 08:54:50;;;;;;;0.73;0.73;;;;;;;;;;4996896;28;20026;-65
2023/09/22 08:57:17;;;;;;;0.80;0.80;;;;;;;;;;4991124;28;20038;-65
2023/09/22 08:59:43;;;;;;;0.70;0.70;;;;;;;;;;4994741;28;20030;-65
2023/09/22 09:02:11;;;;;;;0.75;0.70;;;;;;;;;;4986559;28;20050;-65
2023/09/22 09:04:40;;;;;;;0.88;0.75;;;;;;;;;;4988434;28;20030;-65
2023/09/22 09:07:08;;;;;;;1.00;0.80;;;;;;;;;;4992097;28;20072;-65
2023/09/22 09:09:44;;;;;;;0.85;0.85;;;;;;;;;;4996359;28;20034;-65
2023/09/22 09:12:11;;;;;;;1.83;0.95;;;;;;;;;;4991292;28;20403;-65
2023/09/22 09:14:46;;;;;;;1.23;0.73;;;;;;;;;;4994855;28;20401;-65
2023/09/22 09:17:19;;;;;;;0.80;0.80;;;;;;;;;;4985895;28;20039;-65
2023/09/22 09:20:05;;;;;;;0.70;0.70;;;;;;;;;;4995912;28;20054;-65
2023/09/22 09:22:38;;;;;;;0.80;0.80;;;;;;;;;;4994921;28;20046;-65
2023/09/22 09:25:09;;;;;;;0.70;0.70;;;;;;;;;;4991949;28;20032;-65
2023/09/22 09:27:35;;;;;;;1.08;0.70;;;;;;;;;;4987640;28;20085;-65
2023/09/22 09:30:07;;;;;;;0.90;0.80;;;;;;;;;;4976483;28;20022;-65
2023/09/22 09:32:33;;;;;;;0.93;0.90;;;;;;;;;;4993397;28;20019;-65
2023/09/22 09:34:58;;;;;;;0.77;0.77;;;;;;;;;;4995372;28;20499;-65
2023/09/22 09:37:24;;;;;;;1.75;0.85;;;;;;;;;;4996183;28;20049;-65
2023/09/22 09:39:54;;;;;;;0.80;0.80;;;;;;;;;;4995641;28;20025;-65
2023/09/22 09:42:24;;;;;;;1.33;0.88;;;;;;;;;;4989362;28;20138;-65
2023/09/22 09:44:54;;;;;;;1.13;0.98;;;;;;;;;;4989999;28;20031;-65
2023/09/22 09:47:24;;;;;;;1.08;0.90;;;;;;;;;;5015798;28;20102;-65
2023/09/22 09:50:09;;;;;;;1.23;0.80;;;;;;;;;;4994251;28;20033;-65
2023/09/22 09:52:49;;;;;;;1.25;0.90;;;;;;;;;;4992431;28;20117;-65
2023/09/22 09:55:17;;;;;;;0.82;0.82;;;;;;;;;;4996282;28;20037;-65
2023/09/22 09:57:44;;;;;;;1.08;1.00;;;;;;;;;;4993105;28;20550;-65
2023/09/22 10:00:13;;;;;;;1.00;0.90;;;;;;;;;;4985602;28;20192;-65
2023/09/22 10:02:43;;;;;;;1.00;0.90;;;;;;;;;;4995393;28;20030;-65
2023/09/22 10:05:11;;;;;;;1.27;1.00;;;;;;;;;;4985017;28;20034;-65
2023/09/22 10:07:38;;;;;;;0.80;0.80;;;;;;;;;;4993785;28;20395;-65
2023/09/22 10:10:06;;;;;;;1.15;0.90;;;;;;;;;;4990276;28;20062;-65
2023/09/22 10:12:31;;;;;;;0.90;0.90;;;;;;;;;;4992369;28;20052;-65
2023/09/22 10:15:01;;;;;;;1.45;1.08;;;;;;;;;;4995743;28;20026;-65
2023/09/22 10:17:27;;;;;;;1.13;1.00;;;;;;;;;;4984389;28;20058;-65
2023/09/22 10:19:53;;;;;;;1.23;1.13;;;;;;;;;;4995472;28;20504;-65
2023/09/22 10:22:20;;;;;;;1.17;1.08;;;;;;;;;;4996192;28;20370;-65
2023/09/22 10:24:46;;;;;;;1.02;0.93;;;;;;;;;;4993430;28;20604;-65
2023/09/22 10:27:14;;;;;;;1.15;1.10;;;;;;;;;;4988394;28;20062;-65
2023/09/22 10:29:52;;;;;;;0.80;0.80;;;;;;;;;;4995108;28;20089;-65
2023/09/22 10:32:18;;;;;;;2.35;0.90;;;;;;;;;;4986738;28;20046;-65
2023/09/22 10:35:12;;;;;;;5.45;1.20;;;;;;;;;;4988840;28;20089;-65
2023/09/22 10:37:56;;;;;;;1.17;1.08;;;;;;;;;;4985891;28;20053;-65
2023/09/22 10:40:22;;;;;;;1.10;1.10;;;;;;;;;;4992756;28;20038;-65
2023/09/22 10:42:52;;;;;;;0.93;0.93;;;;;;;;;;4994596;28;20060;-65
2023/09/22 10:45:21;;;;;;;1.00;0.88;;;;;;;;;;4995409;28;20110;-65
2023/09/22 10:47:47;;;;;;;1.00;1.00;;;;;;;;;;4992065;28;20057;-65
2023/09/22 10:50:15;;;;;;;1.20;1.10;;;;;;;;;;4990408;28;20054;-65
2023/09/22 10:52:58;;;;;;;1.27;1.17;;;;;;;;;;4994060;28;20022;-65
2023/09/22 10:55:25;;;;;;;2.95;1.00;;;;;;;;;;4992104;28;20038;-65
2023/09/22 10:57:50;;;;;;;1.48;1.08;;;;;;;;;;4994959;28;20037;-65
2023/09/22 11:00:18;;;;;;;2.80;0.93;;;;;;;;;;4994127;28;20038;-65
2023/09/22 11:02:44;;;;;;;1.10;1.00;;;;;;;;;;4995931;28;20026;-65
2023/09/22 11:05:14;;;;;;;1.58;1.23;;;;;;;;;;4995326;28;20113;-65
2023/09/22 11:07:41;;;;;;;1.00;0.90;;;;;;;;;;4987309;28;20089;-65
2023/09/22 11:10:07;;;;;;;1.20;1.10;;;;;;;;;;4992672;28;20023;-65
2023/09/22 11:12:32;;;;;;;1.33;1.20;;;;;;;;;;4995899;28;20034;-65
2023/09/22 11:15:00;;;;;;;2.47;0.95;;;;;;;;;;5030315;28;20048;-65
2023/09/22 11:17:47;;;;;;;0.95;0.88;;;;;;;;;;4993289;28;20026;-65
2023/09/22 11:20:22;;;;;;;0.77;0.77;;;;;;;;;;4998856;28;20500;-65
2023/09/22 11:22:49;;;;;;;3.97;0.90;;;;;;;;;;4992995;28;20034;-65
2023/09/22 11:25:14;;;;;;;2.55;1.20;;;;;;;;;;4997777;28;20050;-65
2023/09/22 11:27:45;;;;;;;0.93;0.90;;;;;;;;;;4992976;28;20030;-65
2023/09/22 11:30:16;;;;;;;1.10;1.02;;;;;;;;;;4996559;28;20026;-66
2023/09/22 11:32:45;;;;;;;1.15;1.05;;;;;;;;;;4991344;28;20472;-65
2023/09/22 11:35:32;;;;;;;1.55;1.13;;;;;;;;;;4996630;28;20027;-65
2023/09/22 11:37:58;;;;;;;1.15;1.10;;;;;;;;;;4994350;28;20511;-65
2023/09/22 11:40:25;;;;;;;1.35;1.02;;;;;;;;;;4994273;28;20039;-65
2023/09/22 11:42:50;;;;;;;1.40;1.10;;;;;;;;;;4995840;28;20041;-65
2023/09/22 11:45:23;;;;;;;2.05;1.23;;;;;;;;;;4996318;28;20035;-65
2023/09/22 11:47:49;;;;;;;1.63;0.88;;;;;;;;;;4995853;28;20547;-65
2023/09/22 11:50:27;;;;;;;1.15;1.00;;;;;;;;;;4988088;28;20121;-65
2023/09/22 11:53:15;;;;;;;3.25;1.02;;;;;;;;;;4996447;28;20109;-65
2023/09/22 11:55:41;;;;;;;2.63;1.17;;;;;;;;;;4997909;28;20039;-65
2023/09/22 11:58:06;;;;;;;1.90;1.20;;;;;;;;;;4995187;28;20024;-65
2023/09/22 12:00:32;;;;;;;3.17;1.10;;;;;;;;;;4984533;28;20035;-65
2023/09/22 12:02:57;;;;;;;1.65;1.20;;;;;;;;;;4996401;28;20029;-66
2023/09/22 12:05:23;;;;;;;1.33;0.90;;;;;;;;;;4994144;28;20089;-65
2023/09/22 12:07:48;;;;;;;1.17;0.93;;;;;;;;;;4987394;28;20030;-65
2023/09/22 12:10:14;;;;;;;1.10;1.00;;;;;;;;;;4987037;28;20104;-65
2023/09/22 12:12:39;;;;;;;1.88;1.10;;;;;;;;;;4987603;28;20038;-65
2023/09/22 12:15:05;;;;;;;1.55;1.17;;;;;;;;;;4990282;28;20057;-65
2023/09/22 12:17:31;;;;;;;1.05;1.00;;;;;;;;;;4996450;28;20041;-65
2023/09/22 12:19:57;;;;;;;2.20;1.05;;;;;;;;;;4996907;28;20126;-65
2023/09/22 12:22:22;;;;;;;1.42;1.10;;;;;;;;;;4985504;28;20480;-65
2023/09/22 12:24:48;;;;;;;2.95;0.88;;;;;;;;;;4996039;28;20066;-65
2023/09/22 12:27:13;;;;;;;1.40;1.13;;;;;;;;;;4987926;28;20051;-66
2023/09/22 12:29:38;;;;;;;1.67;1.02;;;;;;;;;;4992412;28;20033;-66
2023/09/22 12:32:04;;;;;;;1.20;1.10;;;;;;;;;;4994362;28;20504;-65
2023/09/22 12:34:33;;;;;;;1.10;1.00;;;;;;;;;;4991491;28;20034;-65
2023/09/22 12:36:58;;;;;;;0.80;0.80;;;;;;;;;;4995374;28;20042;-65
2023/09/22 12:39:24;;;;;;;1.65;1.20;;;;;;;;;;4990521;28;20092;-65
2023/09/22 12:41:50;;;;;;;0.90;0.90;;;;;;;;;;4992314;28;20034;-66
2023/09/22 12:44:15;;;;;;;1.00;0.82;;;;;;;;;;4992458;28;20488;-65
2023/09/22 12:46:40;;;;;;;1.20;1.00;;;;;;;;;;4991827;28;20038;-65
2023/09/22 12:49:06;;;;;;;1.23;0.90;;;;;;;;;;4995824;28;20038;-65
2023/09/22 12:51:31;;;;;;;2.67;1.08;;;;;;;;;;4996217;28;20065;-65
2023/09/22 12:53:57;;;;;;;1.75;1.27;;;;;;;;;;4993158;28;20034;-65
2023/09/22 12:56:22;;;;;;;2.05;1.10;;;;;;;;;;4995048;28;20038;-65
2023/09/22 12:58:48;;;;;;;1.70;0.80;;;;;;;;;;4989798;28;20098;-65
2023/09/22 13:01:14;;;;;;;2.20;1.08;;;;;;;;;;4993091;28;20054;-65
2023/09/22 13:03:39;;;;;;;5.05;1.15;;;;;;;;;;4997244;28;20030;-65
2023/09/22 13:06:07;;;;;;;1.08;0.95;;;;;;;;;;4996464;28;20125;-65
2023/09/22 13:08:37;;;;;;;2.88;1.00;;;;;;;;;;4994553;28;20038;-65
2023/09/22 13:11:03;;;;;;;1.45;1.17;;;;;;;;;;4993116;28;20061;-65
2023/09/22 13:13:28;;;;;;;1.10;0.80;;;;;;;;;;4993463;28;20030;-65
2023/09/22 13:15:54;;;;;;;2.15;1.17;;;;;;;;;;4993123;28;20404;-65
2023/09/22 13:18:19;;;;;;;1.35;0.98;;;;;;;;;;4984251;28;20022;-65
2023/09/22 13:20:45;;;;;;;1.23;1.13;;;;;;;;;;4993026;28;20613;-65
2023/09/22 13:23:11;;;;;;;1.30;1.20;;;;;;;;;;4992952;28;20042;-65
2023/09/22 13:25:42;;;;;;;1.30;0.98;;;;;;;;;;4988536;28;20122;-65
2023/09/22 13:28:09;;;;;;;1.60;0.98;;;;;;;;;;4996063;28;20376;-65
2023/09/22 13:30:52;;;;;;;1.08;0.98;;;;;;;;;;4995386;28;20042;-65
2023/09/22 13:33:20;;;;;;;1.40;1.00;;;;;;;;;;4993157;28;20068;-65
2023/09/22 13:35:46;;;;;;;2.45;1.00;;;;;;;;;;4996248;28;20049;-65
2023/09/22 13:38:12;;;;;;;1.77;1.10;;;;;;;;;;4991854;28;20019;-66
2023/09/22 13:40:39;;;;;;;3.15;0.90;;;;;;;;;;4986301;28;20100;-65
2023/09/22 13:43:06;;;;;;;1.05;0.93;;;;;;;;;;4994252;28;20537;-65
2023/09/22 13:45:36;;;;;;;3.17;1.10;;;;;;;;;;4991523;28;20095;-65
2023/09/22 13:48:04;;;;;;;1.70;0.90;;;;;;;;;;4979338;28;20396;-65
2023/09/22 13:50:30;;;;;;;1.40;1.10;;;;;;;;;;4995123;28;20643;-65
2023/09/22 13:52:55;;;;;;;1.40;1.00;;;;;;;;;;4994655;28;20130;-65
2023/09/22 13:55:21;;;;;;;0.80;0.80;;;;;;;;;;4977395;28;20091;-65
2023/09/22 13:57:46;;;;;;;1.58;0.90;;;;;;;;;;4991272;28;20072;-65
2023/09/22 14:00:12;;;;;;;0.88;0.88;;;;;;;;;;4994340;28;20112;-65
2023/09/22 14:02:39;;;;;;;1.80;1.20;;;;;;;;;;4995326;28;20073;-65
2023/09/22 14:05:05;;;;;;;1.00;0.90;;;;;;;;;;4986449;28;20101;-65
2023/09/22 14:07:31;;;;;;;2.78;1.20;;;;;;;;;;4991063;28;20050;-65
2023/09/22 14:09:57;;;;;;;1.30;1.20;;;;;;;;;;4993559;28;20034;-65
2023/09/22 14:12:23;;;;;;;1.73;1.00;;;;;;;;;;4984738;28;20030;-65
2023/09/22 14:14:48;;;;;;;0.90;0.90;;;;;;;;;;4991347;28;20385;-65
2023/09/22 14:17:14;;;;;;;1.38;0.80;;;;;;;;;;4995217;28;20101;-65
2023/09/22 14:19:39;;;;;;;1.85;1.05;;;;;;;;;;4987828;28;20047;-66
2023/09/22 14:22:05;;;;;;;2.70;1.60;;;;;;;;;;4991019;28;20121;-65
2023/09/22 14:24:30;;;;;;;0.80;0.80;;;;;;;;;;4990485;28;20039;-65
2023/09/22 14:26:55;;;;;;;1.08;0.90;;;;;;;;;;4991705;28;20060;-65
2023/09/22 14:29:21;;;;;;;1.38;1.10;;;;;;;;;;4985198;28;20429;-65
2023/09/22 14:31:47;;;;;;;2.00;0.93;;;;;;;;;;4992340;28;20403;-66
2023/09/22 14:34:12;;;;;;;2.10;1.17;;;;;;;;;;4990930;28;20066;-65
2023/09/22 14:36:37;;;;;;;1.52;0.90;;;;;;;;;;4994016;28;20046;-65
2023/09/22 14:39:04;;;;;;;0.80;0.80;;;;;;;;;;4991771;28;20037;-65
2023/09/22 14:41:30;;;;;;;0.85;0.80;;;;;;;;;;4998084;28;20049;-65
2023/09/22 14:43:55;;;;;;;1.08;0.75;;;;;;;;;;4997029;28;20027;-65